createdAt,value
2022-12-18T00:07:12.136Z,90
2022-12-18T00:17:50.438Z,315
2022-12-18T00:23:09.741Z,90
2022-12-18T00:33:47.916Z,135
2022-12-18T00:39:07.495Z,90
2022-12-18T00:44:27.238Z,90
2022-12-18T00:49:46.925Z,0
2022-12-18T01:00:26.419Z,0
2022-12-18T01:05:46.370Z,0
2022-12-18T01:16:25.487Z,45
2022-12-18T01:21:44.654Z,45
2022-12-18T01:27:04.560Z,90
2022-12-18T01:32:23.936Z,90
2022-12-18T01:43:02.219Z,90
2022-12-18T01:48:22.191Z,90
2022-12-18T01:59:00.705Z,135
2022-12-18T02:04:19.732Z,0
2022-12-18T02:09:39.620Z,0
2022-12-18T02:14:59.191Z,0
2022-12-18T02:25:37.728Z,0
2022-12-18T02:30:57.725Z,0
2022-12-18T02:41:36.002Z,0
2022-12-18T02:46:55.404Z,0
2022-12-18T02:52:14.217Z,0
2022-12-18T02:57:33.861Z,135
2022-12-18T03:02:53.059Z,135
2022-12-18T03:08:12.178Z,90
2022-12-18T03:13:31.908Z,225
2022-12-18T03:24:11.068Z,315
2022-12-18T03:29:30.449Z,225
2022-12-18T03:34:50.238Z,270
2022-12-18T03:40:10.035Z,225
2022-12-18T03:50:48.417Z,225
2022-12-18T03:56:08.299Z,270
2022-12-18T04:06:47.148Z,315
2022-12-18T04:12:06.814Z,135
2022-12-18T04:17:26.680Z,45
2022-12-18T04:22:45.761Z,180
2022-12-18T04:33:24.730Z,45
2022-12-18T04:38:43.945Z,225
2022-12-18T04:49:22.830Z,315
2022-12-18T04:54:42.019Z,45
2022-12-18T05:00:01.935Z,90
2022-12-18T05:05:21.171Z,90
2022-12-18T05:16:00.625Z,180
2022-12-18T05:21:20.269Z,135
2022-12-18T05:31:59.302Z,135
2022-12-18T05:37:18.759Z,90
2022-12-18T05:42:37.689Z,90
2022-12-18T05:47:56.578Z,90
2022-12-18T05:58:35.551Z,225
2022-12-18T06:04:20.095Z,270
2022-12-18T06:15:00.088Z,225
2022-12-18T06:21:34.249Z,270
2022-12-18T06:25:39.096Z,270
2022-12-18T06:30:59.010Z,270
2022-12-18T06:36:17.980Z,225
2022-12-18T06:41:37.467Z,225
2022-12-18T06:46:56.907Z,225
2022-12-18T06:52:16.286Z,270
2022-12-18T06:57:35.820Z,270
2022-12-18T07:08:14.526Z,270
2022-12-18T07:13:44.243Z,225
2022-12-18T07:24:14.178Z,270
2022-12-18T07:29:33.562Z,270
2022-12-18T07:34:53.197Z,270
2022-12-18T07:40:12.730Z,270
2022-12-18T07:50:50.830Z,315
2022-12-18T07:56:26.940Z,180
2022-12-18T08:01:30.286Z,180
2022-12-18T08:06:49.687Z,180
2022-12-18T08:17:28.299Z,135
2022-12-18T08:22:47.321Z,135
2022-12-18T08:33:26.517Z,225
2022-12-18T08:38:46.196Z,180
2022-12-18T08:44:05.552Z,270
2022-12-18T08:49:25.237Z,270
2022-12-18T09:00:04.179Z,135
2022-12-18T09:05:23.921Z,180
2022-12-18T09:16:02.067Z,180
2022-12-18T09:21:21.316Z,180
2022-12-18T09:26:41.611Z,180
2022-12-18T09:32:00.636Z,135
2022-12-18T09:37:19.605Z,135
2022-12-18T09:42:39.173Z,180
2022-12-18T09:47:58.545Z,180
2022-12-18T09:53:17.478Z,225
2022-12-18T09:58:36.456Z,180
2022-12-18T10:03:55.706Z,225
2022-12-18T10:09:15.327Z,225
2022-12-18T10:14:34.990Z,225
2022-12-18T10:25:13.820Z,225
2022-12-18T10:30:33.066Z,270
2022-12-18T10:35:52.853Z,135
2022-12-18T10:41:12.026Z,180
2022-12-18T10:46:31.570Z,225
2022-12-18T10:51:50.723Z,225
2022-12-18T10:57:09.818Z,270
2022-12-18T11:07:48.182Z,225
2022-12-18T11:13:07.793Z,270
2022-12-18T11:23:45.775Z,225
2022-12-18T11:30:19.948Z,180
2022-12-18T11:34:36.475Z,270
2022-12-18T11:39:44.146Z,270
2022-12-18T11:45:03.465Z,225
2022-12-18T11:50:23.033Z,315
2022-12-18T11:55:42.065Z,135
2022-12-18T12:06:20.497Z,90
2022-12-18T12:11:38.246Z,45
2022-12-18T12:18:36.807Z,45
2022-12-18T12:22:16.405Z,90
2022-12-18T12:32:54.655Z,45
2022-12-18T12:38:14.070Z,90
2022-12-18T12:48:53.069Z,90
2022-12-18T12:54:12.580Z,90
2022-12-18T12:59:32.014Z,45
2022-12-18T13:04:51.521Z,45
2022-12-18T13:10:11.236Z,90
2022-12-18T13:15:29.461Z,90
2022-12-18T13:26:08.583Z,90
2022-12-18T13:31:28.076Z,90
2022-12-18T13:36:46.926Z,90
2022-12-18T13:42:06.296Z,90
2022-12-18T13:47:25.488Z,90
2022-12-18T13:52:44.664Z,90
2022-12-18T13:58:04.358Z,90
2022-12-18T14:08:43.305Z,90
2022-12-18T14:14:02.617Z,45
2022-12-18T14:24:41.445Z,90
2022-12-18T14:30:00.374Z,90
2022-12-18T14:35:19.630Z,90
2022-12-18T14:40:39.384Z,90
2022-12-18T14:51:17.956Z,90
2022-12-18T14:56:37.645Z,90
2022-12-18T15:07:16.823Z,90
2022-12-18T15:13:51.010Z,90
2022-12-18T15:17:55.653Z,45
2022-12-18T15:23:14.710Z,45
2022-12-18T15:33:53.016Z,90
2022-12-18T15:39:12.353Z,90
2022-12-18T15:49:51.051Z,90
2022-12-18T15:55:10.692Z,90
2022-12-18T16:00:30.446Z,45
2022-12-18T16:05:50.148Z,90
2022-12-18T16:16:29.108Z,90
2022-12-18T16:21:48.522Z,90
2022-12-18T16:32:27.614Z,90
2022-12-18T16:37:46.576Z,90
2022-12-18T16:43:05.959Z,90
2022-12-18T16:48:25.769Z,90
2022-12-18T16:59:04.892Z,90
2022-12-18T17:15:03.072Z,90
2022-12-18T17:20:22.671Z,90
2022-12-18T17:25:41.807Z,45
2022-12-18T17:31:01.522Z,90
2022-12-18T17:41:39.377Z,45
2022-12-18T17:46:59.035Z,90
2022-12-18T17:57:37.544Z,90
2022-12-18T18:02:57.264Z,90
2022-12-18T18:08:16.030Z,45
2022-12-18T18:13:37.939Z,90
2022-12-18T18:24:12.750Z,45
2022-12-18T18:29:32.361Z,45
2022-12-18T18:40:10.631Z,45
2022-12-18T18:45:30.327Z,45
2022-12-18T18:50:49.914Z,45
2022-12-18T19:01:28.699Z,45
2022-12-18T19:06:48.590Z,90
2022-12-18T19:12:08.023Z,45
2022-12-18T19:22:49.729Z,90
2022-12-18T19:33:42.118Z,225
2022-12-18T19:38:44.927Z,45
2022-12-18T19:44:06.872Z,45
2022-12-18T19:49:22.520Z,45
2022-12-18T20:00:01.457Z,90
2022-12-18T20:05:20.836Z,45
2022-12-18T20:10:40.425Z,45
2022-12-18T20:15:59.370Z,135
2022-12-18T20:26:38.112Z,45
2022-12-18T20:31:57.771Z,90
2022-12-18T20:42:36.347Z,45
2022-12-18T20:47:56.123Z,90
2022-12-18T20:54:30.290Z,90
2022-12-18T20:58:36.328Z,45
2022-12-18T21:09:14.229Z,45
2022-12-18T21:14:33.439Z,45
2022-12-18T21:25:11.240Z,45
2022-12-18T21:30:30.369Z,90
2022-12-18T21:35:50.028Z,90
2022-12-18T21:41:09.302Z,90
2022-12-18T21:46:28.913Z,270
2022-12-18T21:51:48.398Z,45
2022-12-18T21:57:07.702Z,90
2022-12-18T22:07:46.987Z,45
2022-12-18T22:13:05.947Z,90
2022-12-18T22:18:25.362Z,315
2022-12-18T22:23:44.807Z,180
2022-12-18T22:34:23.763Z,270
2022-12-18T22:39:42.826Z,270
2022-12-18T22:50:21.582Z,270
2022-12-18T22:55:40.627Z,45
2022-12-18T23:01:00.169Z,90
2022-12-18T23:06:19.725Z,45
2022-12-18T23:16:58.403Z,90
2022-12-18T23:22:17.705Z,90
2022-12-18T23:32:56.432Z,315
2022-12-18T23:38:16.065Z,315
2022-12-18T23:43:35.904Z,45
2022-12-18T23:48:55.721Z,135
2022-12-18T23:49:21.815Z,90
2022-12-18T23:54:41.217Z,225
